Time;durP1;ratioP1;P1;durP2;ratioP2;P2;SDS_P1;SDS_P2;PMS_P1;PMS_P2;Temp;Humidity;BMP_temperature;BMP_pressure;BME280_temperature;BME280_humidity;BME280_pressure;Samples;Min_cycle;Max_cycle;Signal;HPM_P1;HPM_P2
2023/05/17 00:00:23;;;;;;;15.95;4.05;;;;;;;7.95;100.00;102284.06;5068105;28;20055;-47
2023/05/17 00:02:51;;;;;;;16.95;4.03;;;;;;;7.93;100.00;102284.13;5069689;28;20074;-48
2023/05/17 00:05:19;;;;;;;17.42;4.47;;;;;;;7.89;100.00;102276.38;5068157;28;20499;-58
2023/05/17 00:07:50;;;;;;;17.30;4.30;;;;;;;7.89;100.00;102272.00;5060438;28;20048;-58
2023/05/17 00:10:18;;;;;;;13.48;3.90;;;;;;;7.85;100.00;102273.00;5049192;28;20053;-58
2023/05/17 00:12:46;;;;;;;20.17;4.88;;;;;;;7.85;100.00;102273.00;5069152;28;20043;-58
2023/05/17 00:15:14;;;;;;;23.73;4.72;;;;;;;7.88;100.00;102264.19;5062306;28;20534;-58
2023/05/17 00:17:42;;;;;;;18.75;4.50;;;;;;;7.91;100.00;102266.75;5061215;28;20041;-58
2023/05/17 00:20:12;;;;;;;13.75;4.22;;;;;;;7.93;100.00;102271.03;5056687;28;20045;-58
2023/05/17 00:22:42;;;;;;;16.15;4.10;;;;;;;7.93;100.00;102273.66;5058023;28;20037;-58
2023/05/17 00:25:13;;;;;;;15.95;4.70;;;;;;;7.98;100.00;102275.25;5060132;28;20068;-58
2023/05/17 00:27:42;;;;;;;17.02;4.65;;;;;;;7.84;100.00;102273.94;5063199;28;20045;-59
2023/05/17 00:30:10;;;;;;;18.90;4.03;;;;;;;7.86;100.00;102279.13;5057967;28;20086;-59
2023/05/17 00:32:38;;;;;;;16.23;4.28;;;;;;;7.84;100.00;102279.16;5062009;28;20049;-59
2023/05/17 00:35:07;;;;;;;16.65;4.25;;;;;;;7.83;100.00;102274.81;5047907;28;20053;-57
2023/05/17 00:37:35;;;;;;;14.18;4.85;;;;;;;7.77;100.00;102275.00;5064086;28;20048;-59
2023/05/17 00:40:05;;;;;;;17.25;4.57;;;;;;;7.82;100.00;102270.47;5068023;28;20041;-58
2023/05/17 00:42:34;;;;;;;17.00;5.25;;;;;;;7.77;100.00;102262.78;5048855;28;20056;-58
2023/05/17 00:45:07;;;;;;;18.52;4.70;;;;;;;7.76;100.00;102268.91;5072066;28;20103;-58
2023/05/17 00:47:35;;;;;;;21.85;4.97;;;;;;;7.75;100.00;102267.19;5064561;28;20115;-58
2023/05/17 00:50:04;;;;;;;16.80;4.32;;;;;;;7.76;100.00;102268.91;5062321;28;20053;-51
2023/05/17 00:52:32;;;;;;;24.10;4.88;;;;;;;7.74;100.00;102275.09;5058774;28;20090;-49
2023/05/17 00:55:00;;;;;;;16.95;4.50;;;;;;;7.73;100.00;102273.38;5066012;28;20947;-58
2023/05/17 00:57:30;;;;;;;20.05;4.80;;;;;;;7.73;100.00;102271.63;5065096;28;20059;-57
2023/05/17 01:00:00;;;;;;;15.98;5.20;;;;;;;7.71;100.00;102273.44;5066545;28;20041;-47
2023/05/17 01:02:28;;;;;;;19.88;4.65;;;;;;;7.68;100.00;102270.06;5062066;28;20059;-59
2023/05/17 01:04:57;;;;;;;18.02;4.45;;;;;;;7.73;100.00;102268.13;5065184;28;20045;-59
2023/05/17 01:07:26;;;;;;;15.85;4.85;;;;;;;7.73;100.00;102265.53;5061953;28;20057;-58
2023/05/17 01:09:55;;;;;;;17.08;4.22;;;;;;;7.75;100.00;102258.50;5062871;28;20040;-58
2023/05/17 01:12:32;;;;;;;16.55;4.53;;;;;;;7.66;100.00;102261.38;5059766;28;20037;-58
2023/05/17 01:15:12;;;;;;;20.85;4.68;;;;;;;7.64;100.00;102255.34;5064040;28;20123;-57
2023/05/17 01:17:47;;;;;;;16.50;4.28;;;;;;;7.70;100.00;102257.75;5066085;28;20129;-58
2023/05/17 01:20:21;;;;;;;20.85;4.88;;;;;;;7.66;100.00;102267.47;5064044;28;20384;-58
2023/05/17 01:22:58;;;;;;;14.48;4.57;;;;;;;7.63;100.00;102256.25;5060724;28;20041;-58
2023/05/17 01:25:36;;;;;;;15.10;4.80;;;;;;;7.62;100.00;102252.75;5045772;28;20115;-58
2023/05/17 01:28:08;;;;;;;19.00;4.53;;;;;;;7.63;100.00;102262.31;5062407;28;20090;-58
2023/05/17 01:30:37;;;;;;;22.13;4.82;;;;;;;7.65;100.00;102267.50;5061608;28;20098;-58
2023/05/17 01:33:07;;;;;;;19.45;4.70;;;;;;;7.66;100.00;102266.63;5067513;28;20036;-58
2023/05/17 01:35:35;;;;;;;20.92;5.07;;;;;;;7.66;100.00;102269.25;5064802;28;20511;-59
2023/05/17 01:38:03;;;;;;;11.43;3.67;;;;;;;7.68;100.00;102270.06;5063000;28;20040;-57
2023/05/17 01:40:35;;;;;;;15.68;4.82;;;;;;;7.65;100.00;102264.91;5062565;28;20040;-57
2023/05/17 01:43:17;;;;;;;20.23;4.60;;;;;;;7.66;100.00;102259.59;5064488;28;20090;-58
2023/05/17 01:45:58;;;;;;;21.88;5.03;;;;;;;7.65;100.00;102259.66;5060763;28;20135;-58
2023/05/17 01:48:31;;;;;;;17.08;4.95;;;;;;;7.67;100.00;102268.34;5059881;28;20053;-58
2023/05/17 01:51:01;;;;;;;15.40;4.70;;;;;;;7.67;100.00;102265.72;5062313;28;20044;-59
2023/05/17 01:53:32;;;;;;;15.27;4.93;;;;;;;7.67;100.00;102263.94;5059766;28;20484;-58
2023/05/17 01:56:04;;;;;;;18.90;5.47;;;;;;;7.64;100.00;102264.06;5058627;28;20063;-58
2023/05/17 01:58:41;;;;;;;21.13;5.85;;;;;;;7.67;100.00;102268.34;5059450;28;20052;-58
2023/05/17 02:01:11;;;;;;;17.70;4.82;;;;;;;7.67;100.00;102268.34;5063870;28;20510;-58
2023/05/17 02:03:39;;;;;;;15.73;5.07;;;;;;;7.69;100.00;102264.78;5060244;28;20397;-59
2023/05/17 02:06:07;;;;;;;16.17;5.10;;;;;;;7.70;100.00;102263.00;5068255;28;20415;-58
2023/05/17 02:08:38;;;;;;;22.30;6.00;;;;;;;7.71;100.00;102269.97;5057667;28;20048;-58
2023/05/17 02:11:06;;;;;;;16.58;6.03;;;;;;;7.71;100.00;102276.03;5064736;28;20500;-59
2023/05/17 02:13:36;;;;;;;24.50;6.15;;;;;;;7.73;100.00;102273.38;5064585;28;20072;-57
2023/05/17 02:16:07;;;;;;;20.00;6.07;;;;;;;7.77;100.00;102269.75;5052356;28;20123;-58
2023/05/17 02:18:39;;;;;;;15.40;5.45;;;;;;;7.79;100.00;102267.97;5051885;28;20091;-58
2023/05/17 02:21:07;;;;;;;17.38;5.60;;;;;;;7.77;100.00;102267.13;5052428;28;20123;-59
2023/05/17 02:23:35;;;;;;;27.67;6.25;;;;;;;7.79;100.00;102274.06;5066122;28;20036;-57
2023/05/17 02:26:03;;;;;;;17.60;5.05;;;;;;;7.79;100.00;102275.81;5092394;28;20390;-58
2023/05/17 02:28:31;;;;;;;19.08;5.28;;;;;;;7.82;100.00;102274.88;5092381;28;20052;-58
2023/05/17 02:31:04;;;;;;;18.95;5.57;;;;;;;7.79;100.00;102284.53;5092239;28;20044;-58
2023/05/17 02:33:32;;;;;;;17.85;4.65;;;;;;;7.78;100.00;102282.84;5077694;28;20032;-58
2023/05/17 02:36:00;;;;;;;19.15;5.90;;;;;;;7.77;100.00;102298.56;5071220;28;20086;-58
2023/05/17 02:38:28;;;;;;;14.45;5.10;;;;;;;7.83;100.00;102287.06;5072003;28;20544;-58
2023/05/17 02:40:56;;;;;;;21.77;6.03;;;;;;;7.78;100.00;102287.19;5071076;28;20048;-58
2023/05/17 02:43:25;;;;;;;15.23;6.05;;;;;;;7.81;100.00;102292.34;5073042;28;20492;-58
2023/05/17 02:45:54;;;;;;;24.38;6.70;;;;;;;7.77;100.00;102296.81;5062981;28;20056;-58
2023/05/17 02:48:23;;;;;;;16.77;5.95;;;;;;;7.84;100.00;102294.00;5060055;28;20456;-59
2023/05/17 02:50:52;;;;;;;20.85;6.50;;;;;;;7.82;100.00;102296.66;5063580;28;20045;-58
2023/05/17 02:53:20;;;;;;;18.33;5.57;;;;;;;7.85;100.00;102293.94;5063197;28;20040;-58
2023/05/17 02:55:48;;;;;;;17.75;5.68;;;;;;;7.91;100.00;102298.16;5066508;28;20544;-60
2023/05/17 02:58:17;;;;;;;22.05;6.85;;;;;;;7.94;100.00;102311.16;5058544;28;20051;-57
2023/05/17 03:00:45;;;;;;;15.48;5.55;;;;;;;7.99;100.00;102311.03;5063242;28;20561;-59
2023/05/17 03:03:13;;;;;;;19.52;6.07;;;;;;;8.03;100.00;102315.25;5062198;28;20044;-59
2023/05/17 03:05:43;;;;;;;17.98;6.35;;;;;;;8.07;100.00;102327.34;5064426;28;20110;-54
2023/05/17 03:08:11;;;;;;;18.35;5.70;;;;;;;8.06;100.00;102321.28;5058690;28;20055;-47
2023/05/17 03:10:39;;;;;;;18.83;5.93;;;;;;;8.07;100.00;102333.47;5063800;28;21154;-48
2023/05/17 03:13:07;;;;;;;20.48;5.80;;;;;;;8.10;100.00;102324.66;5061550;28;20036;-47
2023/05/17 03:15:36;;;;;;;18.67;6.68;;;;;;;8.11;100.00;102326.34;5059142;28;20040;-50
2023/05/17 03:18:04;;;;;;;18.35;6.35;;;;;;;8.12;100.00;102333.31;5057896;28;20040;-46
2023/05/17 03:20:32;;;;;;;15.95;6.22;;;;;;;8.15;100.00;102333.22;5057813;28;20040;-46
2023/05/17 03:23:02;;;;;;;20.38;6.22;;;;;;;8.21;100.00;102333.03;5059355;28;20452;-49
2023/05/17 03:25:30;;;;;;;18.65;6.32;;;;;;;8.19;100.00;102344.47;5060637;28;20052;-50
2023/05/17 03:27:58;;;;;;;21.20;6.85;;;;;;;8.13;100.00;102342.91;5063168;28;20434;-50
2023/05/17 03:30:29;;;;;;;19.95;6.18;;;;;;;8.18;100.00;102342.75;5062619;28;20051;-49
2023/05/17 03:32:57;;;;;;;21.80;7.20;;;;;;;8.14;100.00;102344.63;5060003;28;20086;-50
2023/05/17 03:35:25;;;;;;;18.42;5.93;;;;;;;8.15;100.00;102348.09;5061287;28;20056;-49
2023/05/17 03:37:56;;;;;;;17.77;5.93;;;;;;;8.16;100.00;102349.81;5059960;28;20064;-50
2023/05/17 03:40:26;;;;;;;21.20;6.28;;;;;;;8.14;100.00;102352.50;5058726;28;20048;-47
2023/05/17 03:42:54;;;;;;;18.20;6.20;;;;;;;8.16;100.00;102353.28;5056693;28;20044;-50
2023/05/17 03:45:26;;;;;;;18.33;5.75;;;;;;;8.19;100.00;102360.19;5063931;28;20480;-46
2023/05/17 03:47:55;;;;;;;20.70;7.07;;;;;;;8.18;100.00;102361.97;5054700;28;20504;-47
2023/05/17 03:50:23;;;;;;;17.77;5.82;;;;;;;8.18;100.00;102359.34;5054389;28;20518;-46
2023/05/17 03:52:51;;;;;;;18.77;6.00;;;;;;;8.23;100.00;102364.44;5059137;28;20866;-46
2023/05/17 03:55:19;;;;;;;16.27;6.05;;;;;;;8.21;100.00;102372.34;5058210;28;20460;-47
2023/05/17 03:57:49;;;;;;;14.32;5.13;;;;;;;8.22;100.00;102371.47;5056438;28;20052;-50
2023/05/17 04:00:20;;;;;;;15.98;5.07;;;;;;;8.26;100.00;102377.44;5061956;28;20052;-50
2023/05/17 04:02:50;;;;;;;18.77;5.90;;;;;;;8.23;100.00;102381.00;5051206;28;20106;-47
2023/05/17 04:05:19;;;;;;;17.98;4.85;;;;;;;8.29;100.00;102375.59;5067331;28;20502;-49
2023/05/17 04:07:47;;;;;;;16.70;5.53;;;;;;;8.32;100.00;102381.63;5056520;28;20106;-51
2023/05/17 04:10:15;;;;;;;11.85;4.93;;;;;;;8.28;100.00;102381.72;5067336;28;20395;-47
2023/05/17 04:12:43;;;;;;;16.48;4.82;;;;;;;8.33;100.00;102383.34;5073076;28;20048;-48
2023/05/17 04:15:13;;;;;;;15.70;5.50;;;;;;;8.25;100.00;102378.38;5073307;28;20491;-46
2023/05/17 04:17:41;;;;;;;14.95;4.70;;;;;;;8.25;100.00;102387.06;5076263;28;20047;-51
2023/05/17 04:20:11;;;;;;;16.40;4.47;;;;;;;8.28;100.00;102392.22;5072344;28;20051;-48
2023/05/17 04:22:42;;;;;;;13.10;4.43;;;;;;;8.20;100.00;102396.00;5072333;28;20475;-50
2023/05/17 04:25:10;;;;;;;16.70;4.65;;;;;;;8.25;100.00;102394.09;5068618;28;20523;-48
2023/05/17 04:27:39;;;;;;;15.95;4.93;;;;;;;8.27;100.00;102398.34;5044662;28;20633;-50
2023/05/17 04:30:08;;;;;;;14.55;4.65;;;;;;;8.28;100.00;102401.84;5062689;28;20053;-48
2023/05/17 04:32:38;;;;;;;15.75;4.70;;;;;;;8.19;100.00;102402.13;5055984;28;20407;-46
2023/05/17 04:35:07;;;;;;;14.50;4.88;;;;;;;8.12;100.00;102404.06;5059157;28;20232;-47
2023/05/17 04:37:38;;;;;;;13.68;4.20;;;;;;;8.14;100.00;102407.53;5061351;28;20041;-48
2023/05/17 04:40:08;;;;;;;15.93;4.38;;;;;;;8.14;100.00;102407.53;5060446;28;20163;-48
2023/05/17 04:42:37;;;;;;;17.73;4.68;;;;;;;8.08;100.00;102408.53;5062767;28;20066;-50
2023/05/17 04:45:06;;;;;;;14.65;3.85;;;;;;;8.05;100.00;102406.00;5060004;28;20717;-53
2023/05/17 04:47:34;;;;;;;16.90;4.55;;;;;;;8.13;100.00;102413.66;5057203;28;20581;-47
2023/05/17 04:50:04;;;;;;;13.82;4.43;;;;;;;8.10;100.00;102413.75;5058427;28;20072;-50
2023/05/17 04:52:32;;;;;;;14.88;3.80;;;;;;;8.12;100.00;102417.19;5058543;28;20059;-48
2023/05/17 04:55:00;;;;;;;20.80;4.72;;;;;;;8.16;100.00;102424.03;5060845;28;20323;-50
2023/05/17 04:57:29;;;;;;;17.20;4.82;;;;;;;8.15;100.00;102427.56;5050513;28;20047;-48
2023/05/17 04:59:57;;;;;;;20.85;4.90;;;;;;;8.20;100.00;102420.44;5064705;28;20071;-57
2023/05/17 05:02:25;;;;;;;15.30;4.38;;;;;;;8.23;100.00;102427.34;5061807;28;20033;-57
2023/05/17 05:04:53;;;;;;;21.02;5.10;;;;;;;8.26;100.00;102433.38;5060160;28;20051;-49
2023/05/17 05:07:23;;;;;;;18.73;4.70;;;;;;;8.33;100.00;102435.78;5063211;28;20109;-50
2023/05/17 05:09:51;;;;;;;17.40;4.45;;;;;;;8.40;100.00;102432.09;5061804;28;20059;-47
2023/05/17 05:12:19;;;;;;;15.02;3.58;;;;;;;8.46;100.00;102438.00;5059258;28;20116;-50
2023/05/17 05:14:47;;;;;;;18.05;3.80;;;;;;;8.53;100.00;102436.06;5060535;28;20047;-49
2023/05/17 05:17:15;;;;;;;17.48;4.30;;;;;;;8.56;100.00;102441.22;5044111;28;20144;-49
2023/05/17 05:19:43;;;;;;;15.82;3.97;;;;;;;8.63;100.00;102449.75;5060648;28;20470;-50
2023/05/17 05:22:12;;;;;;;14.10;3.92;;;;;;;8.66;100.00;102454.91;5059165;28;20033;-49
2023/05/17 05:24:41;;;;;;;13.65;3.33;;;;;;;8.70;100.00;102458.28;5059644;28;20068;-48
2023/05/17 05:27:09;;;;;;;10.95;3.05;;;;;;;8.75;100.00;102459.88;5062051;28;20135;-49
2023/05/17 05:29:41;;;;;;;18.35;3.13;;;;;;;8.78;100.00;102459.75;5060483;28;20040;-48
2023/05/17 05:32:09;;;;;;;14.27;4.30;;;;;;;8.86;100.00;102462.16;5059437;28;20049;-50
2023/05/17 05:34:38;;;;;;;12.98;2.70;;;;;;;8.90;100.00;102473.38;5060229;28;20475;-48
2023/05/17 05:37:06;;;;;;;16.17;3.42;;;;;;;8.91;100.00;102478.59;5060950;28;20052;-51
2023/05/17 05:39:34;;;;;;;18.98;3.65;;;;;;;8.93;100.00;102484.66;5055603;28;20059;-51
2023/05/17 05:42:07;;;;;;;12.93;2.92;;;;;;;8.99;100.00;102486.22;5060804;28;20396;-49
2023/05/17 05:44:35;;;;;;;12.90;3.10;;;;;;;9.07;100.00;102491.22;5069301;28;20085;-48
2023/05/17 05:47:03;;;;;;;19.42;3.60;;;;;;;9.14;100.00;102500.59;5059916;28;20052;-47
2023/05/17 05:49:34;;;;;;;17.48;3.45;;;;;;;9.21;100.00;102499.50;5056623;28;20041;-47
2023/05/17 05:52:02;;;;;;;16.95;3.42;;;;;;;9.25;100.00;102505.50;5060784;28;20057;-49
2023/05/17 05:54:33;;;;;;;22.30;3.95;;;;;;;9.30;100.00;102501.81;5060009;28;20124;-48
2023/05/17 05:57:01;;;;;;;16.80;3.35;;;;;;;9.36;100.00;102508.63;5058752;28;20120;-50
2023/05/17 05:59:30;;;;;;;15.52;3.42;;;;;;;9.38;100.00;102509.44;5044058;28;20056;-48
2023/05/17 06:01:59;;;;;;;16.35;3.30;;;;;;;9.49;100.00;102501.22;5057454;28;20059;-50
2023/05/17 06:04:27;;;;;;;15.68;2.88;;;;;;;9.59;100.00;102514.88;5059195;28;20044;-47
2023/05/17 06:07:11;;;;;;;16.95;3.38;;;;;;;9.67;100.00;102523.34;5042418;28;20445;-47
2023/05/17 06:09:39;;;;;;;14.27;2.55;;;;;;;9.74;100.00;102513.50;5060809;28;20561;-58
2023/05/17 06:12:07;;;;;;;16.70;2.85;;;;;;;9.81;100.00;102526.34;5064221;28;20044;-58
2023/05/17 06:14:37;;;;;;;18.10;3.40;;;;;;;9.85;100.00;102528.88;5061832;28;20049;-59
2023/05/17 06:17:08;;;;;;;14.93;3.08;;;;;;;9.89;100.00;102538.38;5070014;28;20118;-58
2023/05/17 06:19:36;;;;;;;14.43;2.83;;;;;;;9.94;100.00;102526.78;5071795;28;20049;-58
2023/05/17 06:22:04;;;;;;;20.42;3.83;;;;;;;9.93;100.00;102535.56;5071449;28;20071;-58
2023/05/17 06:24:33;;;;;;;17.33;3.45;;;;;;;10.01;100.00;102540.56;5072588;28;20052;-59
2023/05/17 06:27:01;;;;;;;15.77;3.15;;;;;;;10.11;100.00;102535.81;5072398;28;20075;-58
2023/05/17 06:29:29;;;;;;;13.57;3.50;;;;;;;10.13;100.00;102536.63;5065418;28;20080;-58
2023/05/17 06:31:59;;;;;;;16.38;3.10;;;;;;;10.15;100.00;102535.66;5059617;28;20041;-49
2023/05/17 06:34:27;;;;;;;15.65;3.05;;;;;;;10.18;100.00;102542.56;5057907;28;20059;-49
2023/05/17 06:36:55;;;;;;;14.20;3.45;;;;;;;10.18;100.00;102536.47;5063078;28;21668;-51
2023/05/17 06:39:24;;;;;;;16.63;3.10;;;;;;;10.26;100.00;102543.13;5062659;28;20514;-49
2023/05/17 06:41:52;;;;;;;16.85;3.33;;;;;;;10.39;100.00;102537.44;5059718;28;20843;-58
2023/05/17 06:44:20;;;;;;;14.73;2.45;;;;;;;10.45;100.00;102538.09;5070896;28;20118;-58
2023/05/17 06:46:48;;;;;;;13.68;2.70;;;;;;;10.61;100.00;102538.38;5071721;28;20051;-59
2023/05/17 06:49:20;;;;;;;12.85;2.85;;;;;;;10.66;100.00;102546.06;5072260;28;20055;-60
2023/05/17 06:51:48;;;;;;;12.18;2.30;;;;;;;10.64;100.00;102547.91;5049838;28;20411;-59
2023/05/17 06:54:18;;;;;;;11.45;2.63;;;;;;;10.65;100.00;102550.50;5072371;28;20519;-59
2023/05/17 06:56:46;;;;;;;12.48;2.78;;;;;;;10.72;100.00;102550.28;5054436;28;20041;-59
2023/05/17 06:59:15;;;;;;;12.10;2.47;;;;;;;10.76;100.00;102549.22;5072238;28;20114;-59
2023/05/17 07:01:43;;;;;;;13.43;2.42;;;;;;;10.74;100.00;102553.69;5072555;28;20055;-59
2023/05/17 07:04:11;;;;;;;13.15;2.42;;;;;;;10.89;100.00;102554.88;5051577;28;20555;-59
2023/05/17 07:06:41;;;;;;;13.57;2.20;;;;;;;10.90;100.00;102557.44;5069186;28;20050;-51
2023/05/17 07:09:09;;;;;;;11.32;2.25;;;;;;;11.02;100.00;102553.47;5068706;28;20044;-52
2023/05/17 07:11:39;;;;;;;11.93;2.30;;;;;;;11.07;100.00;102555.91;5070566;28;20060;-49
2023/05/17 07:14:07;;;;;;;12.57;1.95;;;;;;;11.10;100.00;102554.00;5052215;28;20102;-52
2023/05/17 07:16:39;;;;;;;14.20;1.92;;;;;;;11.20;100.00;102561.53;5071556;28;20157;-59
2023/05/17 07:19:07;;;;;;;9.57;1.60;;;;;;;11.27;100.00;102555.94;5071935;28;20131;-59
2023/05/17 07:21:35;;;;;;;11.55;1.80;;;;;;;11.38;100.00;102570.47;5071964;28;20542;-61
2023/05/17 07:24:09;;;;;;;11.98;1.83;;;;;;;11.46;100.00;102576.28;5067994;28;20506;-59
2023/05/17 07:26:37;;;;;;;7.88;1.65;;;;;;;11.52;100.00;102567.25;5071803;28;20538;-60
2023/05/17 07:29:05;;;;;;;9.35;2.30;;;;;;;11.60;100.00;102571.31;5070828;28;20098;-50
2023/05/17 07:31:33;;;;;;;10.68;1.80;;;;;;;11.58;100.00;102581.03;5064577;28;20045;-52
2023/05/17 07:34:02;;;;;;;13.20;2.05;;;;;;;11.77;100.00;102577.63;5069021;28;20052;-50
2023/05/17 07:36:30;;;;;;;11.90;2.70;;;;;;;11.81;100.00;102574.78;5067728;28;20045;-49
2023/05/17 07:38:58;;;;;;;12.48;2.00;;;;;;;11.83;100.00;102575.59;5062251;28;20037;-51
2023/05/17 07:41:28;;;;;;;8.73;1.63;;;;;;;12.01;100.00;102575.72;5057122;28;20679;-49
2023/05/17 07:43:56;;;;;;;12.27;1.95;;;;;;;12.14;100.00;102576.91;5060827;28;20056;-51
2023/05/17 07:46:24;;;;;;;11.68;1.75;;;;;;;12.26;100.00;102575.50;5065118;28;20652;-51
2023/05/17 07:48:55;;;;;;;12.20;2.05;;;;;;;12.34;100.00;102578.66;5065730;28;20127;-60
2023/05/17 07:51:26;;;;;;;13.18;1.77;;;;;;;12.41;100.00;102583.69;5050408;28;20065;-60
2023/05/17 07:53:54;;;;;;;10.05;1.83;;;;;;;12.60;100.00;102584.53;5042754;28;20103;-59
2023/05/17 07:56:22;;;;;;;11.30;2.05;;;;;;;12.87;100.00;102592.09;5050826;28;20048;-60
2023/05/17 07:58:51;;;;;;;6.65;1.50;;;;;;;12.87;100.00;102591.22;5053399;28;20069;-60
2023/05/17 08:01:20;;;;;;;8.82;1.90;;;;;;;12.87;100.00;102596.50;5044490;28;20145;-52
2023/05/17 08:03:48;;;;;;;10.68;2.30;;;;;;;12.89;100.00;102598.16;5046944;28;20042;-52
2023/05/17 08:06:16;;;;;;;7.93;1.60;;;;;;;12.89;100.00;102589.38;5044965;28;20537;-52
2023/05/17 08:08:45;;;;;;;8.88;1.50;;;;;;;12.97;100.00;102593.38;5043332;28;20128;-52
2023/05/17 08:11:13;;;;;;;10.38;2.13;;;;;;;12.97;100.00;102597.81;5044743;28;20040;-52
2023/05/17 08:13:43;;;;;;;7.15;1.73;;;;;;;13.00;100.00;102589.72;5040091;28;20099;-52
2023/05/17 08:16:12;;;;;;;7.57;1.38;;;;;;;12.94;100.00;102593.53;5045133;28;20504;-52
2023/05/17 08:18:42;;;;;;;15.70;2.00;;;;;;;12.99;100.00;102601.22;5043459;28;20061;-50
2023/05/17 08:21:11;;;;;;;15.00;2.33;;;;;;;12.91;100.00;102590.16;5046926;28;20049;-51
2023/05/17 08:23:40;;;;;;;9.65;2.00;;;;;;;13.04;100.00;102601.00;5046402;28;20040;-59
2023/05/17 08:26:08;;;;;;;11.68;2.00;;;;;;;13.21;100.00;102595.78;5045785;28;20049;-49
2023/05/17 08:28:39;;;;;;;7.50;1.70;;;;;;;13.23;100.00;102595.69;5039730;28;20038;-51
2023/05/17 08:31:08;;;;;;;9.07;1.80;;;;;;;13.38;100.00;102600.25;5042728;28;20115;-53
2023/05/17 08:33:37;;;;;;;8.27;1.58;;;;;;;13.53;100.00;102602.13;5045425;28;20041;-60
2023/05/17 08:36:07;;;;;;;8.65;1.60;;;;;;;13.71;100.00;102602.13;5048210;28;20404;-61
2023/05/17 08:38:36;;;;;;;7.80;1.48;;;;;;;13.76;100.00;102601.94;5043797;28;20041;-61
2023/05/17 08:41:04;;;;;;;11.23;1.92;;;;;;;13.97;100.00;102592.88;5041924;28;20496;-53
2023/05/17 08:43:36;;;;;;;9.80;1.80;;;;;;;14.20;100.00;102606.69;5044457;28;20084;-53
2023/05/17 08:46:05;;;;;;;7.35;1.35;;;;;;;14.01;100.00;102601.50;5043292;28;20075;-53
2023/05/17 08:48:40;;;;;;;12.00;2.33;;;;;;;13.95;100.00;102602.69;5040917;28;20036;-49
2023/05/17 08:51:10;;;;;;;7.82;1.73;;;;;;;13.96;100.00;102607.06;5048114;28;20084;-48
2023/05/17 08:53:38;;;;;;;7.75;1.50;;;;;;;13.99;100.00;102606.88;5060206;28;20134;-53
2023/05/17 08:56:07;;;;;;;10.07;1.85;;;;;;;14.06;100.00;102603.91;5060962;28;20744;-62
2023/05/17 08:58:37;;;;;;;8.68;1.60;;;;;;;14.23;100.00;102606.53;5057160;28;20231;-62
2023/05/17 09:01:24;;;;;;;9.68;1.60;;;;;;;14.36;100.00;102604.94;5063955;28;20040;-53
2023/05/17 09:03:56;;;;;;;8.60;1.70;;;;;;;14.29;93.10;102606.22;5061066;28;20538;-62
2023/05/17 09:06:24;;;;;;;7.05;1.27;;;;;;;14.51;87.49;102613.00;5060142;28;20048;-63
2023/05/17 09:08:54;;;;;;;9.15;1.38;;;;;;;14.75;85.01;102602.91;5043809;28;20044;-62
2023/05/17 09:11:27;;;;;;;7.30;1.95;;;;;;;14.99;83.91;102605.13;5059714;28;20063;-62
2023/05/17 09:13:59;;;;;;;7.20;1.85;;;;;;;15.17;87.90;102604.09;5058210;28;20037;-61
2023/05/17 09:16:28;;;;;;;8.25;1.38;;;;;;;15.63;82.27;102603.22;5059530;28;20134;-52
2023/05/17 09:18:59;;;;;;;8.50;1.95;;;;;;;15.94;83.91;102611.16;5058347;28;20538;-54
2023/05/17 09:21:29;;;;;;;9.00;2.00;;;;;;;16.13;76.91;102606.47;5056051;28;20060;-53
2023/05/17 09:24:00;;;;;;;5.57;1.20;;;;;;;16.40;72.23;102605.72;5055345;28;20049;-53
2023/05/17 09:26:40;;;;;;;9.05;1.30;;;;;;;16.60;66.65;102612.44;5053904;28;20047;-53
2023/05/17 09:29:11;;;;;;;5.78;1.08;;;;;;;16.92;61.93;102608.72;5052312;28;20069;-53
2023/05/17 09:31:40;;;;;;;6.38;1.25;;;;;;;17.06;59.57;102606.88;5044519;28;20160;-53
2023/05/17 09:34:10;;;;;;;8.38;1.73;;;;;;;17.19;60.08;102601.63;5063360;28;20047;-55
2023/05/17 09:36:42;;;;;;;6.30;1.30;;;;;;;17.34;61.08;102599.75;5073329;28;20139;-53
2023/05/17 09:39:11;;;;;;;10.30;1.50;;;;;;;17.09;58.57;102608.47;5075943;28;20078;-54
2023/05/17 09:41:42;;;;;;;7.57;1.45;;;;;;;17.21;59.52;102596.19;5081945;28;20048;-55
2023/05/17 09:44:11;;;;;;;10.05;1.60;;;;;;;16.98;58.21;102581.75;5059426;28;20037;-54
2023/05/17 09:46:44;;;;;;;7.00;1.40;;;;;;;16.63;61.33;102591.00;5056910;28;20058;-52
2023/05/17 09:49:14;;;;;;;11.23;2.00;;;;;;;16.80;60.27;102600.56;5057265;28;20052;-57
2023/05/17 09:51:44;;;;;;;5.18;1.30;;;;;;;17.01;57.56;102611.63;5059518;28;20687;-56
2023/05/17 09:54:12;;;;;;;7.13;1.35;;;;;;;17.23;57.26;102608.44;5059398;28;20048;-52
2023/05/17 09:56:41;;;;;;;7.50;1.77;;;;;;;17.49;58.00;102610.31;5062731;28;20492;-54
2023/05/17 09:59:14;;;;;;;8.48;1.65;;;;;;;17.63;58.26;102606.72;5066834;28;20130;-52
2023/05/17 10:01:44;;;;;;;9.65;1.45;;;;;;;17.90;55.19;102598.66;5072288;28;20513;-54
2023/05/17 10:04:19;;;;;;;4.85;1.00;;;;;;;17.76;56.72;102598.78;5081989;28;20050;-55
2023/05/17 10:06:49;;;;;;;7.63;1.60;;;;;;;17.70;58.16;102598.22;5069520;28;20109;-54
2023/05/17 10:09:22;;;;;;;6.23;1.47;;;;;;;17.50;57.21;102596.91;5070642;28;20101;-54
2023/05/17 10:11:52;;;;;;;9.02;1.67;;;;;;;17.33;59.63;102592.72;5070993;28;21064;-53
2023/05/17 10:14:26;;;;;;;6.53;1.30;;;;;;;17.72;56.21;102598.13;5051930;28;20056;-53
2023/05/17 10:16:56;;;;;;;6.03;1.10;;;;;;;17.67;55.54;102603.78;5056908;28;20057;-52
2023/05/17 10:19:26;;;;;;;8.75;1.58;;;;;;;17.97;55.93;102605.31;5057388;28;20044;-52
2023/05/17 10:21:57;;;;;;;7.88;1.38;;;;;;;17.90;55.07;102601.31;5056473;28;20040;-54
2023/05/17 10:24:39;;;;;;;7.53;1.60;;;;;;;17.85;53.08;102600.81;5068959;28;20074;-53
2023/05/17 10:27:08;;;;;;;6.22;1.20;;;;;;;18.16;51.27;102598.72;5062075;28;20044;-52
2023/05/17 10:29:38;;;;;;;7.35;1.40;;;;;;;18.55;51.67;102596.84;5056065;28;20495;-52
2023/05/17 10:32:08;;;;;;;8.95;1.73;;;;;;;18.47;49.27;102599.22;5056131;28;20099;-55
2023/05/17 10:34:39;;;;;;;6.60;1.10;;;;;;;18.74;50.80;102591.88;5071710;28;20046;-52
2023/05/17 10:37:07;;;;;;;11.15;1.55;;;;;;;18.98;52.06;102591.13;5076279;28;20050;-51
2023/05/17 10:39:37;;;;;;;5.32;1.13;;;;;;;19.26;50.07;102591.72;5074760;28;20418;-54
2023/05/17 10:42:08;;;;;;;5.05;1.20;;;;;;;19.34;48.22;102589.31;5073362;28;20071;-54
2023/05/17 10:44:39;;;;;;;6.70;1.20;;;;;;;19.17;46.30;102593.28;5064225;28;20048;-53
2023/05/17 10:47:08;;;;;;;6.90;1.20;;;;;;;19.07;44.19;102592.25;5068767;28;20066;-54
2023/05/17 10:49:40;;;;;;;6.93;1.30;;;;;;;19.23;47.38;102583.97;5054277;28;20060;-54
2023/05/17 10:52:13;;;;;;;6.60;1.40;;;;;;;19.66;47.60;102587.84;5069858;28;20053;-54
2023/05/17 10:54:42;;;;;;;5.03;1.05;;;;;;;19.74;45.00;102586.31;5056525;28;20353;-54
2023/05/17 10:57:20;;;;;;;5.20;1.55;;;;;;;19.87;45.74;102588.91;5050405;28;20810;-53
2023/05/17 10:59:57;;;;;;;7.10;1.55;;;;;;;19.36;47.10;102591.88;5048396;28;20148;-53
2023/05/17 11:02:27;;;;;;;5.43;1.25;;;;;;;19.48;47.05;102588.28;5049485;28;20052;-51
2023/05/17 11:04:59;;;;;;;6.95;1.20;;;;;;;19.57;47.35;102579.59;5048912;28;20064;-64
2023/05/17 11:07:31;;;;;;;7.15;1.52;;;;;;;19.37;46.40;102583.78;5050421;28;20496;-64
2023/05/17 11:10:05;;;;;;;7.28;1.23;;;;;;;19.98;47.62;102576.56;5051416;28;20048;-52
2023/05/17 11:12:36;;;;;;;8.60;1.83;;;;;;;20.23;47.86;102570.09;5050360;28;20079;-53
2023/05/17 11:15:09;;;;;;;7.18;1.45;;;;;;;20.16;44.46;102566.22;5060900;28;20044;-53
2023/05/17 11:17:50;;;;;;;8.02;1.52;;;;;;;20.07;44.75;102573.16;5068910;28;20499;-53
2023/05/17 11:20:33;;;;;;;8.98;1.42;;;;;;;20.14;42.67;102579.72;5068690;28;20041;-50
2023/05/17 11:23:04;;;;;;;5.32;1.45;;;;;;;20.25;42.17;102562.84;5069232;28;20052;-65
2023/05/17 11:25:34;;;;;;;6.45;1.58;;;;;;;20.50;45.58;102566.22;5050904;28;20059;-61
2023/05/17 11:28:07;;;;;;;7.90;1.40;;;;;;;20.79;43.27;102571.88;5066471;28;20466;-65